sensor_id;sensor_type;location;lat;lon;timestamp;P1;durP1;ratioP1;P2;durP2;ratioP2
66669;SDS011;53568;52.164;4.472;2022-10-16T00:01:45;2.33;;;2.31;;
66669;SDS011;53568;52.164;4.472;2022-10-16T00:04:11;2.46;;;2.43;;
66669;SDS011;53568;52.164;4.472;2022-10-16T00:06:38;2.39;;;2.37;;
66669;SDS011;53568;52.164;4.472;2022-10-16T00:09:03;2.42;;;2.42;;
66669;SDS011;53568;52.164;4.472;2022-10-16T00:11:34;2.01;;;2.00;;
66669;SDS011;53568;52.164;4.472;2022-10-16T00:14:03;2.43;;;2.39;;
66669;SDS011;53568;52.164;4.472;2022-10-16T00:16:32;2.07;;;2.04;;
66669;SDS011;53568;52.164;4.472;2022-10-16T00:18:59;2.01;;;1.99;;
66669;SDS011;53568;52.164;4.472;2022-10-16T00:21:26;2.00;;;1.98;;
66669;SDS011;53568;52.164;4.472;2022-10-16T00:23:55;2.12;;;2.10;;
66669;SDS011;53568;52.164;4.472;2022-10-16T00:26:26;1.73;;;1.72;;
66669;SDS011;53568;52.164;4.472;2022-10-16T00:28:53;1.94;;;1.93;;
66669;SDS011;53568;52.164;4.472;2022-10-16T00:31:20;1.83;;;1.82;;
66669;SDS011;53568;52.164;4.472;2022-10-16T00:33:47;1.80;;;1.79;;
66669;SDS011;53568;52.164;4.472;2022-10-16T00:36:14;2.00;;;1.98;;
66669;SDS011;53568;52.164;4.472;2022-10-16T00:38:42;1.74;;;1.72;;
66669;SDS011;53568;52.164;4.472;2022-10-16T00:41:10;1.70;;;1.67;;
66669;SDS011;53568;52.164;4.472;2022-10-16T00:48:52;1.69;;;1.67;;
66669;SDS011;53568;52.164;4.472;2022-10-16T00:51:30;1.65;;;1.63;;
66669;SDS011;53568;52.164;4.472;2022-10-16T00:53:59;1.56;;;1.56;;
66669;SDS011;53568;52.164;4.472;2022-10-16T00:56:28;1.41;;;1.40;;
66669;SDS011;53568;52.164;4.472;2022-10-16T00:58:53;1.39;;;1.37;;
66669;SDS011;53568;52.164;4.472;2022-10-16T01:01:19;1.49;;;1.46;;
66669;SDS011;53568;52.164;4.472;2022-10-16T01:03:45;1.33;;;1.29;;
66669;SDS011;53568;52.164;4.472;2022-10-16T01:06:18;1.47;;;1.42;;
66669;SDS011;53568;52.164;4.472;2022-10-16T01:11:33;1.28;;;1.23;;
66669;SDS011;53568;52.164;4.472;2022-10-16T01:14:56;1.53;;;1.47;;
66669;SDS011;53568;52.164;4.472;2022-10-16T01:17:20;1.25;;;1.24;;
66669;SDS011;53568;52.164;4.472;2022-10-16T01:22:25;1.48;;;1.45;;
66669;SDS011;53568;52.164;4.472;2022-10-16T01:25:11;1.51;;;1.48;;
66669;SDS011;53568;52.164;4.472;2022-10-16T01:27:47;1.52;;;1.49;;
66669;SDS011;53568;52.164;4.472;2022-10-16T01:30:16;1.48;;;1.46;;
66669;SDS011;53568;52.164;4.472;2022-10-16T01:32:51;1.57;;;1.55;;
66669;SDS011;53568;52.164;4.472;2022-10-16T01:35:25;1.46;;;1.44;;
66669;SDS011;53568;52.164;4.472;2022-10-16T01:40:28;1.75;;;1.73;;
66669;SDS011;53568;52.164;4.472;2022-10-16T01:43:07;1.84;;;1.84;;
66669;SDS011;53568;52.164;4.472;2022-10-16T01:45:40;1.62;;;1.62;;
66669;SDS011;53568;52.164;4.472;2022-10-16T01:48:09;1.62;;;1.62;;
66669;SDS011;53568;52.164;4.472;2022-10-16T01:50:39;1.75;;;1.75;;
66669;SDS011;53568;52.164;4.472;2022-10-16T01:53:09;1.72;;;1.71;;
66669;SDS011;53568;52.164;4.472;2022-10-16T01:55:39;1.91;;;1.91;;
66669;SDS011;53568;52.164;4.472;2022-10-16T01:58:10;2.23;;;2.22;;
66669;SDS011;53568;52.164;4.472;2022-10-16T02:00:38;2.13;;;2.13;;
66669;SDS011;53568;52.164;4.472;2022-10-16T02:03:09;2.04;;;2.04;;
66669;SDS011;53568;52.164;4.472;2022-10-16T02:05:40;2.34;;;2.34;;
66669;SDS011;53568;52.164;4.472;2022-10-16T02:08:11;1.86;;;1.86;;
66669;SDS011;53568;52.164;4.472;2022-10-16T02:10:37;2.00;;;2.00;;
66669;SDS011;53568;52.164;4.472;2022-10-16T02:13:06;1.97;;;1.96;;
66669;SDS011;53568;52.164;4.472;2022-10-16T02:15:44;1.78;;;1.78;;
66669;SDS011;53568;52.164;4.472;2022-10-16T02:18:09;1.84;;;1.84;;
66669;SDS011;53568;52.164;4.472;2022-10-16T02:20:57;2.09;;;2.08;;
66669;SDS011;53568;52.164;4.472;2022-10-16T02:26:14;2.51;;;2.44;;
66669;SDS011;53568;52.164;4.472;2022-10-16T02:28:51;2.28;;;2.23;;
66669;SDS011;53568;52.164;4.472;2022-10-16T02:31:25;2.05;;;2.03;;
66669;SDS011;53568;52.164;4.472;2022-10-16T02:33:55;2.05;;;2.05;;
66669;SDS011;53568;52.164;4.472;2022-10-16T02:36:24;2.65;;;2.64;;
66669;SDS011;53568;52.164;4.472;2022-10-16T02:38:52;2.20;;;2.20;;
66669;SDS011;53568;52.164;4.472;2022-10-16T02:41:20;2.12;;;2.12;;
66669;SDS011;53568;52.164;4.472;2022-10-16T02:43:47;2.26;;;2.26;;
66669;SDS011;53568;52.164;4.472;2022-10-16T02:46:12;2.56;;;2.56;;
66669;SDS011;53568;52.164;4.472;2022-10-16T02:48:38;1.94;;;1.94;;
66669;SDS011;53568;52.164;4.472;2022-10-16T02:51:04;2.49;;;2.48;;
66669;SDS011;53568;52.164;4.472;2022-10-16T02:53:30;2.08;;;2.08;;
66669;SDS011;53568;52.164;4.472;2022-10-16T02:55:55;2.78;;;2.78;;
66669;SDS011;53568;52.164;4.472;2022-10-16T02:58:20;3.01;;;3.00;;
66669;SDS011;53568;52.164;4.472;2022-10-16T03:00:46;2.86;;;2.85;;
66669;SDS011;53568;52.164;4.472;2022-10-16T03:03:12;2.85;;;2.84;;
66669;SDS011;53568;52.164;4.472;2022-10-16T03:05:37;2.65;;;2.64;;
66669;SDS011;53568;52.164;4.472;2022-10-16T03:08:03;2.86;;;2.84;;
66669;SDS011;53568;52.164;4.472;2022-10-16T03:13:04;2.79;;;2.76;;
66669;SDS011;53568;52.164;4.472;2022-10-16T03:15:30;2.62;;;2.59;;
66669;SDS011;53568;52.164;4.472;2022-10-16T03:17:59;2.82;;;2.82;;
66669;SDS011;53568;52.164;4.472;2022-10-16T03:20:25;2.65;;;2.65;;
66669;SDS011;53568;52.164;4.472;2022-10-16T03:23:00;2.81;;;2.81;;
66669;SDS011;53568;52.164;4.472;2022-10-16T03:25:27;3.26;;;3.26;;
66669;SDS011;53568;52.164;4.472;2022-10-16T03:27:53;2.57;;;2.57;;
66669;SDS011;53568;52.164;4.472;2022-10-16T03:30:18;2.80;;;2.80;;
66669;SDS011;53568;52.164;4.472;2022-10-16T03:32:44;2.32;;;2.29;;
66669;SDS011;53568;52.164;4.472;2022-10-16T03:35:11;2.27;;;2.24;;
66669;SDS011;53568;52.164;4.472;2022-10-16T03:37:37;2.40;;;2.37;;
66669;SDS011;53568;52.164;4.472;2022-10-16T03:40:03;2.09;;;2.06;;
66669;SDS011;53568;52.164;4.472;2022-10-16T03:42:29;2.05;;;2.03;;
66669;SDS011;53568;52.164;4.472;2022-10-16T03:44:57;2.47;;;2.46;;
66669;SDS011;53568;52.164;4.472;2022-10-16T03:47:23;2.12;;;2.11;;
66669;SDS011;53568;52.164;4.472;2022-10-16T03:49:49;1.84;;;1.82;;
66669;SDS011;53568;52.164;4.472;2022-10-16T03:52:15;1.66;;;1.66;;
66669;SDS011;53568;52.164;4.472;2022-10-16T03:54:41;1.77;;;1.75;;
66669;SDS011;53568;52.164;4.472;2022-10-16T03:57:07;2.05;;;2.01;;
66669;SDS011;53568;52.164;4.472;2022-10-16T03:59:32;2.05;;;2.04;;
66669;SDS011;53568;52.164;4.472;2022-10-16T04:01:58;2.17;;;2.16;;
66669;SDS011;53568;52.164;4.472;2022-10-16T04:04:23;1.71;;;1.70;;
66669;SDS011;53568;52.164;4.472;2022-10-16T04:06:50;1.77;;;1.72;;
66669;SDS011;53568;52.164;4.472;2022-10-16T04:09:16;1.74;;;1.67;;
66669;SDS011;53568;52.164;4.472;2022-10-16T04:11:41;1.93;;;1.85;;
66669;SDS011;53568;52.164;4.472;2022-10-16T04:14:07;2.40;;;2.30;;
66669;SDS011;53568;52.164;4.472;2022-10-16T04:16:32;2.05;;;1.98;;
66669;SDS011;53568;52.164;4.472;2022-10-16T04:18:58;2.34;;;2.24;;
66669;SDS011;53568;52.164;4.472;2022-10-16T04:21:23;2.17;;;2.08;;
66669;SDS011;53568;52.164;4.472;2022-10-16T04:23:51;1.77;;;1.69;;
66669;SDS011;53568;52.164;4.472;2022-10-16T04:26:17;2.27;;;2.16;;
66669;SDS011;53568;52.164;4.472;2022-10-16T04:28:43;2.37;;;2.28;;
66669;SDS011;53568;52.164;4.472;2022-10-16T04:31:08;2.05;;;1.99;;
66669;SDS011;53568;52.164;4.472;2022-10-16T04:33:34;2.37;;;2.31;;
66669;SDS011;53568;52.164;4.472;2022-10-16T04:36:00;1.97;;;1.90;;
66669;SDS011;53568;52.164;4.472;2022-10-16T04:38:27;2.00;;;1.91;;
66669;SDS011;53568;52.164;4.472;2022-10-16T04:40:53;1.87;;;1.79;;
66669;SDS011;53568;52.164;4.472;2022-10-16T04:43:19;1.74;;;1.67;;
66669;SDS011;53568;52.164;4.472;2022-10-16T04:45:46;2.14;;;2.07;;
66669;SDS011;53568;52.164;4.472;2022-10-16T04:48:16;2.20;;;2.14;;
66669;SDS011;53568;52.164;4.472;2022-10-16T04:50:42;1.87;;;1.82;;
66669;SDS011;53568;52.164;4.472;2022-10-16T04:53:07;2.01;;;1.97;;
66669;SDS011;53568;52.164;4.472;2022-10-16T04:55:33;2.09;;;2.04;;
66669;SDS011;53568;52.164;4.472;2022-10-16T04:57:59;2.37;;;2.32;;
66669;SDS011;53568;52.164;4.472;2022-10-16T05:00:24;2.09;;;2.05;;
66669;SDS011;53568;52.164;4.472;2022-10-16T05:02:50;2.18;;;2.15;;
66669;SDS011;53568;52.164;4.472;2022-10-16T05:05:19;1.97;;;1.93;;
66669;SDS011;53568;52.164;4.472;2022-10-16T05:07:45;2.27;;;2.22;;
66669;SDS011;53568;52.164;4.472;2022-10-16T05:10:11;2.14;;;2.10;;
66669;SDS011;53568;52.164;4.472;2022-10-16T05:12:39;2.23;;;2.20;;
66669;SDS011;53568;52.164;4.472;2022-10-16T05:15:05;2.29;;;2.24;;
66669;SDS011;53568;52.164;4.472;2022-10-16T05:17:33;2.51;;;2.46;;
66669;SDS011;53568;52.164;4.472;2022-10-16T05:19:59;2.44;;;2.42;;
66669;SDS011;53568;52.164;4.472;2022-10-16T05:25:35;2.54;;;2.52;;
66669;SDS011;53568;52.164;4.472;2022-10-16T05:28:04;2.33;;;2.30;;
66669;SDS011;53568;52.164;4.472;2022-10-16T05:30:39;2.33;;;2.31;;
66669;SDS011;53568;52.164;4.472;2022-10-16T05:33:04;2.53;;;2.48;;
66669;SDS011;53568;52.164;4.472;2022-10-16T05:35:30;2.30;;;2.22;;
66669;SDS011;53568;52.164;4.472;2022-10-16T05:37:55;2.23;;;2.16;;
66669;SDS011;53568;52.164;4.472;2022-10-16T05:40:21;2.18;;;2.11;;
66669;SDS011;53568;52.164;4.472;2022-10-16T05:42:46;2.29;;;2.23;;
66669;SDS011;53568;52.164;4.472;2022-10-16T05:45:12;2.79;;;2.71;;
66669;SDS011;53568;52.164;4.472;2022-10-16T05:47:38;2.76;;;2.66;;
66669;SDS011;53568;52.164;4.472;2022-10-16T05:50:04;2.98;;;2.87;;
66669;SDS011;53568;52.164;4.472;2022-10-16T05:52:29;2.41;;;2.34;;
66669;SDS011;53568;52.164;4.472;2022-10-16T05:54:55;2.88;;;2.82;;
66669;SDS011;53568;52.164;4.472;2022-10-16T05:57:20;2.39;;;2.39;;
66669;SDS011;53568;52.164;4.472;2022-10-16T05:59:46;2.66;;;2.66;;
66669;SDS011;53568;52.164;4.472;2022-10-16T06:02:12;2.74;;;2.71;;
66669;SDS011;53568;52.164;4.472;2022-10-16T06:04:39;3.06;;;3.00;;
66669;SDS011;53568;52.164;4.472;2022-10-16T06:07:04;2.97;;;2.97;;
66669;SDS011;53568;52.164;4.472;2022-10-16T06:09:30;2.78;;;2.77;;
66669;SDS011;53568;52.164;4.472;2022-10-16T06:11:55;2.60;;;2.60;;
66669;SDS011;53568;52.164;4.472;2022-10-16T06:14:21;2.78;;;2.78;;
66669;SDS011;53568;52.164;4.472;2022-10-16T06:16:46;2.49;;;2.49;;
66669;SDS011;53568;52.164;4.472;2022-10-16T06:19:12;2.61;;;2.61;;
66669;SDS011;53568;52.164;4.472;2022-10-16T06:21:37;2.59;;;2.59;;
66669;SDS011;53568;52.164;4.472;2022-10-16T06:24:03;2.82;;;2.82;;
66669;SDS011;53568;52.164;4.472;2022-10-16T06:26:30;2.88;;;2.88;;
66669;SDS011;53568;52.164;4.472;2022-10-16T06:28:56;2.72;;;2.72;;
66669;SDS011;53568;52.164;4.472;2022-10-16T06:31:41;2.49;;;2.49;;
66669;SDS011;53568;52.164;4.472;2022-10-16T06:34:08;2.69;;;2.68;;
66669;SDS011;53568;52.164;4.472;2022-10-16T06:36:35;2.45;;;2.44;;
66669;SDS011;53568;52.164;4.472;2022-10-16T06:39:01;2.35;;;2.35;;
66669;SDS011;53568;52.164;4.472;2022-10-16T06:41:31;2.58;;;2.58;;
66669;SDS011;53568;52.164;4.472;2022-10-16T06:43:57;2.78;;;2.71;;
66669;SDS011;53568;52.164;4.472;2022-10-16T06:46:25;2.60;;;2.50;;
66669;SDS011;53568;52.164;4.472;2022-10-16T06:48:52;2.55;;;2.41;;
66669;SDS011;53568;52.164;4.472;2022-10-16T06:51:19;2.78;;;2.59;;
66669;SDS011;53568;52.164;4.472;2022-10-16T06:53:47;2.88;;;2.55;;
66669;SDS011;53568;52.164;4.472;2022-10-16T06:56:16;2.61;;;2.34;;
66669;SDS011;53568;52.164;4.472;2022-10-16T06:58:44;2.97;;;2.66;;
66669;SDS011;53568;52.164;4.472;2022-10-16T07:01:11;2.94;;;2.60;;
66669;SDS011;53568;52.164;4.472;2022-10-16T07:03:38;2.88;;;2.53;;
66669;SDS011;53568;52.164;4.472;2022-10-16T07:06:06;3.03;;;2.63;;
66669;SDS011;53568;52.164;4.472;2022-10-16T07:08:34;3.12;;;2.75;;
66669;SDS011;53568;52.164;4.472;2022-10-16T07:11:04;2.75;;;2.47;;
66669;SDS011;53568;52.164;4.472;2022-10-16T07:13:35;2.39;;;2.14;;
66669;SDS011;53568;52.164;4.472;2022-10-16T07:16:11;2.67;;;2.39;;
66669;SDS011;53568;52.164;4.472;2022-10-16T07:18:45;3.52;;;3.13;;
66669;SDS011;53568;52.164;4.472;2022-10-16T07:21:14;2.90;;;2.60;;
66669;SDS011;53568;52.164;4.472;2022-10-16T07:23:41;3.21;;;2.89;;
66669;SDS011;53568;52.164;4.472;2022-10-16T07:26:07;3.27;;;2.93;;
66669;SDS011;53568;52.164;4.472;2022-10-16T07:28:34;2.99;;;2.69;;
66669;SDS011;53568;52.164;4.472;2022-10-16T07:31:03;2.69;;;2.42;;
66669;SDS011;53568;52.164;4.472;2022-10-16T07:33:32;3.10;;;2.75;;
66669;SDS011;53568;52.164;4.472;2022-10-16T07:35:58;3.16;;;2.79;;
66669;SDS011;53568;52.164;4.472;2022-10-16T07:38:24;3.11;;;2.76;;
66669;SDS011;53568;52.164;4.472;2022-10-16T07:40:56;2.53;;;2.29;;
66669;SDS011;53568;52.164;4.472;2022-10-16T07:43:24;2.78;;;2.53;;
66669;SDS011;53568;52.164;4.472;2022-10-16T07:45:50;2.92;;;2.73;;
66669;SDS011;53568;52.164;4.472;2022-10-16T07:48:16;2.90;;;2.74;;
66669;SDS011;53568;52.164;4.472;2022-10-16T07:50:43;2.69;;;2.52;;
66669;SDS011;53568;52.164;4.472;2022-10-16T07:53:10;2.86;;;2.67;;
66669;SDS011;53568;52.164;4.472;2022-10-16T07:55:37;3.01;;;2.85;;
66669;SDS011;53568;52.164;4.472;2022-10-16T07:58:02;2.96;;;2.82;;
66669;SDS011;53568;52.164;4.472;2022-10-16T08:00:28;2.99;;;2.86;;
66669;SDS011;53568;52.164;4.472;2022-10-16T08:02:54;3.11;;;2.92;;
66669;SDS011;53568;52.164;4.472;2022-10-16T08:05:19;3.09;;;2.90;;
66669;SDS011;53568;52.164;4.472;2022-10-16T08:07:48;3.23;;;3.05;;
66669;SDS011;53568;52.164;4.472;2022-10-16T08:10:18;2.94;;;2.80;;
66669;SDS011;53568;52.164;4.472;2022-10-16T08:12:45;3.16;;;3.01;;
66669;SDS011;53568;52.164;4.472;2022-10-16T08:15:11;3.33;;;3.13;;
66669;SDS011;53568;52.164;4.472;2022-10-16T08:17:39;2.95;;;2.74;;
66669;SDS011;53568;52.164;4.472;2022-10-16T08:20:05;2.70;;;2.53;;
66669;SDS011;53568;52.164;4.472;2022-10-16T08:22:31;3.18;;;2.96;;
66669;SDS011;53568;52.164;4.472;2022-10-16T08:24:57;2.70;;;2.47;;
66669;SDS011;53568;52.164;4.472;2022-10-16T08:27:22;2.85;;;2.55;;
66669;SDS011;53568;52.164;4.472;2022-10-16T08:29:48;3.29;;;2.82;;
66669;SDS011;53568;52.164;4.472;2022-10-16T08:32:14;3.10;;;2.58;;
66669;SDS011;53568;52.164;4.472;2022-10-16T08:34:40;3.24;;;2.75;;
66669;SDS011;53568;52.164;4.472;2022-10-16T08:37:05;3.36;;;2.81;;
66669;SDS011;53568;52.164;4.472;2022-10-16T08:39:33;3.52;;;2.91;;
66669;SDS011;53568;52.164;4.472;2022-10-16T08:47:26;3.53;;;2.98;;
66669;SDS011;53568;52.164;4.472;2022-10-16T08:50:11;3.25;;;2.82;;
66669;SDS011;53568;52.164;4.472;2022-10-16T08:52:43;3.50;;;3.00;;
66669;SDS011;53568;52.164;4.472;2022-10-16T08:55:19;3.60;;;3.03;;
66669;SDS011;53568;52.164;4.472;2022-10-16T08:57:58;3.92;;;3.31;;
66669;SDS011;53568;52.164;4.472;2022-10-16T09:00:24;3.78;;;3.21;;
66669;SDS011;53568;52.164;4.472;2022-10-16T09:03:07;3.34;;;2.85;;
66669;SDS011;53568;52.164;4.472;2022-10-16T09:09:27;4.20;;;3.34;;
66669;SDS011;53568;52.164;4.472;2022-10-16T09:12:12;3.91;;;3.04;;
66669;SDS011;53568;52.164;4.472;2022-10-16T09:17:53;4.35;;;3.33;;
66669;SDS011;53568;52.164;4.472;2022-10-16T09:20:30;4.82;;;3.58;;
66669;SDS011;53568;52.164;4.472;2022-10-16T09:25:29;4.37;;;3.31;;
66669;SDS011;53568;52.164;4.472;2022-10-16T09:27:57;4.62;;;3.48;;
66669;SDS011;53568;52.164;4.472;2022-10-16T09:30:25;4.48;;;3.36;;
66669;SDS011;53568;52.164;4.472;2022-10-16T09:32:54;4.91;;;3.70;;
66669;SDS011;53568;52.164;4.472;2022-10-16T09:38:06;5.38;;;4.06;;
66669;SDS011;53568;52.164;4.472;2022-10-16T09:40:37;4.95;;;3.67;;
66669;SDS011;53568;52.164;4.472;2022-10-16T09:43:25;5.21;;;3.83;;
66669;SDS011;53568;52.164;4.472;2022-10-16T09:48:58;4.04;;;3.17;;
66669;SDS011;53568;52.164;4.472;2022-10-16T09:51:29;4.86;;;3.59;;
66669;SDS011;53568;52.164;4.472;2022-10-16T09:56:32;6.38;;;4.47;;
66669;SDS011;53568;52.164;4.472;2022-10-16T09:59:17;6.44;;;4.45;;
66669;SDS011;53568;52.164;4.472;2022-10-16T10:01:51;5.73;;;3.96;;
66669;SDS011;53568;52.164;4.472;2022-10-16T10:04:19;6.40;;;4.35;;
66669;SDS011;53568;52.164;4.472;2022-10-16T10:06:51;7.07;;;4.68;;
66669;SDS011;53568;52.164;4.472;2022-10-16T10:09:23;7.26;;;4.69;;
66669;SDS011;53568;52.164;4.472;2022-10-16T10:12:17;6.59;;;4.30;;
66669;SDS011;53568;52.164;4.472;2022-10-16T10:14:51;7.05;;;4.56;;
66669;SDS011;53568;52.164;4.472;2022-10-16T10:22:21;7.04;;;4.57;;
66669;SDS011;53568;52.164;4.472;2022-10-16T10:30:44;6.61;;;4.20;;
66669;SDS011;53568;52.164;4.472;2022-10-16T10:50:04;7.17;;;4.30;;
66669;SDS011;53568;52.164;4.472;2022-10-16T10:58:35;6.73;;;4.07;;
66669;SDS011;53568;52.164;4.472;2022-10-16T11:01:39;6.31;;;3.85;;
66669;SDS011;53568;52.164;4.472;2022-10-16T11:07:04;6.60;;;4.05;;
66669;SDS011;53568;52.164;4.472;2022-10-16T11:09:38;6.36;;;3.88;;
66669;SDS011;53568;52.164;4.472;2022-10-16T11:12:24;6.52;;;3.99;;
66669;SDS011;53568;52.164;4.472;2022-10-16T11:15:00;6.90;;;4.18;;
66669;SDS011;53568;52.164;4.472;2022-10-16T11:17:38;6.96;;;4.18;;
66669;SDS011;53568;52.164;4.472;2022-10-16T11:23:11;6.60;;;3.98;;
66669;SDS011;53568;52.164;4.472;2022-10-16T11:25:46;6.43;;;3.90;;
66669;SDS011;53568;52.164;4.472;2022-10-16T11:28:15;6.47;;;3.90;;
66669;SDS011;53568;52.164;4.472;2022-10-16T11:31:32;6.46;;;3.88;;
66669;SDS011;53568;52.164;4.472;2022-10-16T11:39:29;7.04;;;4.21;;
66669;SDS011;53568;52.164;4.472;2022-10-16T11:42:03;6.20;;;3.78;;
66669;SDS011;53568;52.164;4.472;2022-10-16T11:47:45;6.13;;;3.76;;
66669;SDS011;53568;52.164;4.472;2022-10-16T11:55:31;5.82;;;3.59;;
66669;SDS011;53568;52.164;4.472;2022-10-16T12:00:56;5.46;;;3.33;;
66669;SDS011;53568;52.164;4.472;2022-10-16T12:09:05;4.96;;;3.07;;
66669;SDS011;53568;52.164;4.472;2022-10-16T12:11:44;5.54;;;3.44;;
66669;SDS011;53568;52.164;4.472;2022-10-16T12:16:37;5.31;;;3.26;;
66669;SDS011;53568;52.164;4.472;2022-10-16T12:19:25;5.12;;;3.15;;
66669;SDS011;53568;52.164;4.472;2022-10-16T12:21:54;5.91;;;3.67;;
66669;SDS011;53568;52.164;4.472;2022-10-16T12:24:38;5.03;;;3.14;;
66669;SDS011;53568;52.164;4.472;2022-10-16T12:29:57;5.55;;;3.47;;
66669;SDS011;53568;52.164;4.472;2022-10-16T12:32:30;5.72;;;3.59;;
66669;SDS011;53568;52.164;4.472;2022-10-16T12:34:59;5.55;;;3.53;;
66669;SDS011;53568;52.164;4.472;2022-10-16T12:37:28;4.83;;;3.11;;
66669;SDS011;53568;52.164;4.472;2022-10-16T12:39:59;5.26;;;3.36;;
66669;SDS011;53568;52.164;4.472;2022-10-16T12:42:37;6.10;;;3.81;;
66669;SDS011;53568;52.164;4.472;2022-10-16T12:45:21;5.70;;;3.60;;
66669;SDS011;53568;52.164;4.472;2022-10-16T12:47:52;5.10;;;3.25;;
66669;SDS011;53568;52.164;4.472;2022-10-16T12:50:27;5.32;;;3.41;;
66669;SDS011;53568;52.164;4.472;2022-10-16T12:52:58;5.41;;;3.38;;
66669;SDS011;53568;52.164;4.472;2022-10-16T12:55:25;5.98;;;3.74;;
66669;SDS011;53568;52.164;4.472;2022-10-16T13:06:28;6.66;;;4.07;;
66669;SDS011;53568;52.164;4.472;2022-10-16T13:14:31;5.65;;;3.56;;
66669;SDS011;53568;52.164;4.472;2022-10-16T13:17:22;4.69;;;3.04;;
66669;SDS011;53568;52.164;4.472;2022-10-16T13:20:21;5.31;;;3.45;;
66669;SDS011;53568;52.164;4.472;2022-10-16T13:28:11;5.07;;;3.23;;
66669;SDS011;53568;52.164;4.472;2022-10-16T13:35:58;6.46;;;3.89;;
66669;SDS011;53568;52.164;4.472;2022-10-16T13:38:25;6.73;;;4.09;;
66669;SDS011;53568;52.164;4.472;2022-10-16T13:46:05;5.80;;;3.54;;
66669;SDS011;53568;52.164;4.472;2022-10-16T13:48:36;5.40;;;3.29;;
66669;SDS011;53568;52.164;4.472;2022-10-16T13:53:38;6.62;;;4.02;;
66669;SDS011;53568;52.164;4.472;2022-10-16T13:56:07;6.17;;;3.78;;
66669;SDS011;53568;52.164;4.472;2022-10-16T13:58:39;5.58;;;3.44;;
66669;SDS011;53568;52.164;4.472;2022-10-16T14:01:13;5.87;;;3.57;;
66669;SDS011;53568;52.164;4.472;2022-10-16T14:03:50;5.96;;;3.63;;
66669;SDS011;53568;52.164;4.472;2022-10-16T14:06:19;5.73;;;3.51;;
66669;SDS011;53568;52.164;4.472;2022-10-16T14:08:59;5.66;;;3.44;;
66669;SDS011;53568;52.164;4.472;2022-10-16T14:11:36;5.71;;;3.47;;
66669;SDS011;53568;52.164;4.472;2022-10-16T14:14:13;5.90;;;3.59;;
66669;SDS011;53568;52.164;4.472;2022-10-16T14:16:41;6.37;;;3.85;;
66669;SDS011;53568;52.164;4.472;2022-10-16T14:19:18;6.54;;;3.95;;
66669;SDS011;53568;52.164;4.472;2022-10-16T14:21:53;6.71;;;4.09;;
66669;SDS011;53568;52.164;4.472;2022-10-16T14:24:40;5.92;;;3.61;;
66669;SDS011;53568;52.164;4.472;2022-10-16T14:27:28;6.16;;;3.79;;
66669;SDS011;53568;52.164;4.472;2022-10-16T14:32:32;7.31;;;4.51;;
66669;SDS011;53568;52.164;4.472;2022-10-16T14:34:58;6.53;;;4.10;;
66669;SDS011;53568;52.164;4.472;2022-10-16T14:37:24;5.83;;;3.69;;
66669;SDS011;53568;52.164;4.472;2022-10-16T14:39:52;5.70;;;3.68;;
66669;SDS011;53568;52.164;4.472;2022-10-16T14:42:20;6.41;;;4.08;;
66669;SDS011;53568;52.164;4.472;2022-10-16T14:44:54;6.45;;;4.10;;
66669;SDS011;53568;52.164;4.472;2022-10-16T14:47:22;6.42;;;4.04;;
66669;SDS011;53568;52.164;4.472;2022-10-16T14:49:54;6.57;;;4.07;;
66669;SDS011;53568;52.164;4.472;2022-10-16T14:52:22;6.20;;;3.91;;
66669;SDS011;53568;52.164;4.472;2022-10-16T14:54:48;6.10;;;3.86;;
66669;SDS011;53568;52.164;4.472;2022-10-16T14:57:16;6.35;;;4.05;;
66669;SDS011;53568;52.164;4.472;2022-10-16T14:59:47;6.78;;;4.31;;
66669;SDS011;53568;52.164;4.472;2022-10-16T15:04:53;5.94;;;3.79;;
66669;SDS011;53568;52.164;4.472;2022-10-16T15:07:19;6.18;;;3.94;;
66669;SDS011;53568;52.164;4.472;2022-10-16T15:09:45;5.49;;;3.56;;
66669;SDS011;53568;52.164;4.472;2022-10-16T15:12:11;5.78;;;3.79;;
66669;SDS011;53568;52.164;4.472;2022-10-16T15:14:36;6.55;;;4.28;;
66669;SDS011;53568;52.164;4.472;2022-10-16T15:17:02;6.85;;;4.46;;
66669;SDS011;53568;52.164;4.472;2022-10-16T15:19:28;5.87;;;3.87;;
66669;SDS011;53568;52.164;4.472;2022-10-16T15:21:53;6.01;;;4.11;;
66669;SDS011;53568;52.164;4.472;2022-10-16T15:24:19;6.58;;;4.69;;
66669;SDS011;53568;52.164;4.472;2022-10-16T15:26:44;5.64;;;4.08;;
66669;SDS011;53568;52.164;4.472;2022-10-16T15:29:14;6.02;;;4.39;;
66669;SDS011;53568;52.164;4.472;2022-10-16T15:31:40;5.70;;;4.25;;
66669;SDS011;53568;52.164;4.472;2022-10-16T15:34:09;6.25;;;4.49;;
66669;SDS011;53568;52.164;4.472;2022-10-16T15:36:38;5.50;;;3.94;;
66669;SDS011;53568;52.164;4.472;2022-10-16T15:39:04;5.63;;;4.09;;
66669;SDS011;53568;52.164;4.472;2022-10-16T15:41:41;5.74;;;4.26;;
66669;SDS011;53568;52.164;4.472;2022-10-16T15:44:07;5.42;;;4.11;;
66669;SDS011;53568;52.164;4.472;2022-10-16T15:46:33;6.31;;;4.70;;
66669;SDS011;53568;52.164;4.472;2022-10-16T15:48:59;5.95;;;4.45;;
66669;SDS011;53568;52.164;4.472;2022-10-16T15:51:26;5.42;;;4.17;;
66669;SDS011;53568;52.164;4.472;2022-10-16T15:53:57;5.40;;;4.11;;
66669;SDS011;53568;52.164;4.472;2022-10-16T15:56:22;5.12;;;3.80;;
66669;SDS011;53568;52.164;4.472;2022-10-16T15:58:50;4.95;;;3.74;;
66669;SDS011;53568;52.164;4.472;2022-10-16T16:01:16;6.07;;;4.64;;
66669;SDS011;53568;52.164;4.472;2022-10-16T16:03:42;5.36;;;4.28;;
66669;SDS011;53568;52.164;4.472;2022-10-16T16:06:08;4.56;;;3.69;;
66669;SDS011;53568;52.164;4.472;2022-10-16T16:08:35;4.42;;;3.62;;
66669;SDS011;53568;52.164;4.472;2022-10-16T16:11:03;4.82;;;3.83;;
66669;SDS011;53568;52.164;4.472;2022-10-16T16:13:35;4.77;;;3.64;;
66669;SDS011;53568;52.164;4.472;2022-10-16T16:16:12;5.07;;;3.80;;
66669;SDS011;53568;52.164;4.472;2022-10-16T16:18:41;5.40;;;4.06;;
66669;SDS011;53568;52.164;4.472;2022-10-16T16:21:07;5.28;;;4.09;;
66669;SDS011;53568;52.164;4.472;2022-10-16T16:23:36;5.57;;;4.27;;
66669;SDS011;53568;52.164;4.472;2022-10-16T16:28:51;6.15;;;4.49;;
66669;SDS011;53568;52.164;4.472;2022-10-16T16:31:18;6.65;;;4.88;;
66669;SDS011;53568;52.164;4.472;2022-10-16T16:33:44;7.65;;;6.06;;
66669;SDS011;53568;52.164;4.472;2022-10-16T16:36:09;7.01;;;5.84;;
66669;SDS011;53568;52.164;4.472;2022-10-16T16:38:35;7.11;;;6.08;;
66669;SDS011;53568;52.164;4.472;2022-10-16T16:41:23;6.37;;;5.69;;
66669;SDS011;53568;52.164;4.472;2022-10-16T16:43:48;6.73;;;6.16;;
66669;SDS011;53568;52.164;4.472;2022-10-16T16:46:16;6.36;;;5.69;;
66669;SDS011;53568;52.164;4.472;2022-10-16T16:48:42;6.77;;;6.07;;
66669;SDS011;53568;52.164;4.472;2022-10-16T16:51:08;6.76;;;5.97;;
66669;SDS011;53568;52.164;4.472;2022-10-16T16:53:41;7.29;;;6.21;;
66669;SDS011;53568;52.164;4.472;2022-10-16T16:56:07;7.46;;;6.63;;
66669;SDS011;53568;52.164;4.472;2022-10-16T16:58:33;6.65;;;6.09;;
66669;SDS011;53568;52.164;4.472;2022-10-16T17:00:59;7.15;;;6.56;;
66669;SDS011;53568;52.164;4.472;2022-10-16T17:03:30;8.04;;;7.29;;
66669;SDS011;53568;52.164;4.472;2022-10-16T17:05:58;7.82;;;7.18;;
66669;SDS011;53568;52.164;4.472;2022-10-16T17:08:32;7.78;;;7.12;;
66669;SDS011;53568;52.164;4.472;2022-10-16T17:11:00;7.82;;;7.23;;
66669;SDS011;53568;52.164;4.472;2022-10-16T17:13:26;7.24;;;6.67;;
66669;SDS011;53568;52.164;4.472;2022-10-16T17:15:54;7.35;;;6.78;;
66669;SDS011;53568;52.164;4.472;2022-10-16T17:18:21;7.74;;;7.17;;
66669;SDS011;53568;52.164;4.472;2022-10-16T17:20:47;8.55;;;7.88;;
66669;SDS011;53568;52.164;4.472;2022-10-16T17:23:15;8.78;;;8.16;;
66669;SDS011;53568;52.164;4.472;2022-10-16T17:25:42;8.68;;;8.25;;
66669;SDS011;53568;52.164;4.472;2022-10-16T17:28:09;8.61;;;8.17;;
66669;SDS011;53568;52.164;4.472;2022-10-16T17:30:41;7.55;;;7.10;;
66669;SDS011;53568;52.164;4.472;2022-10-16T17:33:08;8.12;;;7.54;;
66669;SDS011;53568;52.164;4.472;2022-10-16T17:35:36;8.64;;;8.05;;